Time;durP1;ratioP1;P1;durP2;ratioP2;P2;SDS_P1;SDS_P2;PMS_P1;PMS_P2;Temp;Humidity;BMP_temperature;BMP_pressure;BME280_temperature;BME280_humidity;BME280_pressure;Samples;Min_cycle;Max_cycle;Signal;HPM_P1;HPM_P2
2023/02/23 00:05:54;;;;;;;0.00;0.00;;;;;;;5.63;84.53;100266.88;6070270;23;20236;-75
2023/02/23 00:12:09;;;;;;;;;;;;;;;;;;;;;
2023/02/23 00:18:06;;;;;;;0.00;0.00;;;;;;;5.31;83.98;100250.97;6069256;23;20018;-78
2023/02/23 00:23:57;;;;;;;0.00;0.00;;;;;;;5.24;85.53;100270.06;6033185;23;20011;-76
2023/02/23 00:31:49;;;;;;;0.00;0.00;;;;;;;5.20;85.27;100285.16;6044224;23;20011;-78
2023/02/23 00:34:19;;;;;;;0.00;0.00;;;;;;;4.90;86.66;100255.41;5969346;23;20039;-76
2023/02/23 00:36:54;;;;;;;0.00;0.00;;;;;;;4.76;86.94;100257.50;6247204;23;19988;-78
2023/02/23 00:39:33;;;;;;;0.00;0.00;;;;;;;4.48;87.54;100241.84;6227351;23;20014;-78
2023/02/23 00:42:02;;;;;;;0.00;0.00;;;;;;;4.46;87.85;100254.81;6224622;23;19992;-78
2023/02/23 00:44:35;;;;;;;0.10;0.10;;;;;;;4.44;87.99;100278.56;6227692;23;19992;-79
2023/02/23 00:47:03;;;;;;;0.00;0.00;;;;;;;4.22;89.14;100257.44;6228164;23;20024;-79
2023/02/23 00:49:28;;;;;;;0.00;0.00;;;;;;;3.99;89.58;100253.53;6231267;22;20035;-79
2023/02/23 00:51:56;;;;;;;0.00;0.00;;;;;;;3.98;89.83;100270.81;6227059;22;20008;-76
2023/02/23 00:54:22;;;;;;;0.00;0.00;;;;;;;3.86;90.13;100261.81;6231566;23;20012;-75
2023/02/23 00:56:48;;;;;;;0.00;0.00;;;;;;;3.90;91.27;100263.00;6196129;23;20018;-73
2023/02/23 00:59:13;;;;;;;0.00;0.00;;;;;;;4.02;90.65;100266.59;6223256;23;20008;-74
2023/02/23 01:01:43;;;;;;;0.00;0.00;;;;;;;4.13;90.92;100264.19;6221877;23;20004;-75
2023/02/23 01:04:10;;;;;;;0.00;0.00;;;;;;;4.32;90.77;100265.81;6221716;23;20003;-76
2023/02/23 01:06:44;;;;;;;0.00;0.00;;;;;;;4.61;89.78;100293.13;6221768;22;20004;-75
2023/02/23 01:09:24;;;;;;;0.00;0.00;;;;;;;4.69;89.86;100279.25;6216913;23;20020;-76
2023/02/23 01:11:51;;;;;;;0.00;0.00;;;;;;;4.75;89.38;100276.69;6217240;22;20005;-76
2023/02/23 01:14:16;;;;;;;0.00;0.00;;;;;;;4.72;89.03;100270.66;6216909;23;20338;-76
2023/02/23 01:16:42;;;;;;;0.00;0.00;;;;;;;4.89;89.29;100286.25;6219864;23;20318;-76
2023/02/23 01:19:09;;;;;;;0.00;0.00;;;;;;;4.82;88.98;100266.56;6214950;23;20414;-76
2023/02/23 01:21:40;;;;;;;0.00;0.00;;;;;;;5.02;88.24;100294.22;6219445;23;20008;-77
2023/02/23 01:24:10;;;;;;;0.10;0.10;;;;;;;5.05;87.86;100282.91;6216500;23;20012;-73
2023/02/23 01:26:39;;;;;;;0.00;0.00;;;;;;;4.95;87.87;100274.50;6215284;23;19996;-73
2023/02/23 01:29:07;;;;;;;0.00;0.00;;;;;;;5.04;88.20;100275.00;6214146;23;20012;-74
2023/02/23 01:31:34;;;;;;;0.00;0.00;;;;;;;5.26;88.14;100302.38;6215212;23;20059;-75
2023/02/23 01:34:01;;;;;;;0.00;0.00;;;;;;;5.36;87.63;100313.47;6190359;23;20032;-74
2023/02/23 01:36:28;;;;;;;0.00;0.00;;;;;;;5.40;87.19;100303.81;6187355;23;20083;-73
2023/02/23 01:38:55;;;;;;;0.00;0.00;;;;;;;5.37;87.23;100296.16;6218070;23;20000;-73
2023/02/23 01:41:25;;;;;;;0.05;0.05;;;;;;;5.47;86.63;100305.56;6164274;23;20034;-74
2023/02/23 01:44:29;;;;;;;0.00;0.00;;;;;;;5.44;86.23;100301.44;6217049;23;20031;-74
2023/02/23 01:46:55;;;;;;;0.00;0.00;;;;;;;5.37;86.64;100300.72;6217962;23;20004;-74
2023/02/23 01:49:28;;;;;;;0.00;0.00;;;;;;;5.34;86.79;100301.19;6193449;23;20067;-75
2023/02/23 01:52:14;;;;;;;0.00;0.00;;;;;;;5.26;86.91;100294.25;6213907;23;20023;-74
2023/02/23 01:54:49;;;;;;;0.00;0.00;;;;;;;5.39;86.86;100309.47;6218084;23;20029;-74
2023/02/23 01:57:16;;;;;;;0.00;0.00;;;;;;;5.30;86.69;100300.84;6214769;23;20023;-74
2023/02/23 01:59:50;;;;;;;0.00;0.00;;;;;;;5.35;86.92;100298.25;6219087;23;20007;-73
2023/02/23 02:02:22;;;;;;;0.00;0.00;;;;;;;5.41;87.92;100308.16;6216390;23;20008;-74
2023/02/23 02:04:50;;;;;;;0.00;0.00;;;;;;;5.37;87.13;100288.00;6218203;23;20463;-73
2023/02/23 02:07:23;;;;;;;0.00;0.00;;;;;;;5.58;86.82;100308.28;6189718;23;20555;-73
2023/02/23 02:12:44;;;;;;;0.00;0.00;;;;;;;5.68;86.78;100307.72;6221523;23;20008;-73
2023/02/23 02:15:15;;;;;;;0.10;0.10;;;;;;;5.69;86.64;100309.34;6190631;23;20016;-73
2023/02/23 02:17:56;;;;;;;0.00;0.00;;;;;;;5.73;86.93;100310.53;6193611;23;19997;-74
2023/02/23 02:20:37;;;;;;;0.00;0.00;;;;;;;5.77;86.44;100309.00;6218854;23;20011;-74
2023/02/23 02:23:29;;;;;;;0.00;0.00;;;;;;;5.86;86.00;100319.50;6217935;23;20016;-73
2023/02/23 02:26:25;;;;;;;0.00;0.00;;;;;;;5.85;86.11;100320.56;6212968;23;20466;-74
2023/02/23 02:29:09;;;;;;;0.00;0.00;;;;;;;5.91;86.66;100322.31;6216158;23;20058;-74
2023/02/23 02:32:09;;;;;;;0.00;0.00;;;;;;;5.87;85.75;100324.69;6219379;23;20015;-74
2023/02/23 02:35:07;;;;;;;0.00;0.00;;;;;;;5.73;86.13;100309.72;6214529;23;20013;-75
2023/02/23 02:37:40;;;;;;;0.10;0.10;;;;;;;5.71;87.34;100312.66;6219653;23;20053;-75
2023/02/23 02:40:21;;;;;;;0.00;0.00;;;;;;;5.82;86.63;100316.41;6219837;23;20508;-75
2023/02/23 02:43:10;;;;;;;0.00;0.00;;;;;;;5.90;87.14;100332.34;6217283;23;20000;-75
2023/02/23 02:46:03;;;;;;;0.00;0.00;;;;;;;5.83;86.83;100318.06;6219034;23;20001;-75
2023/02/23 02:48:56;;;;;;;0.00;0.00;;;;;;;5.73;86.98;100313.22;6219192;23;20007;-75
2023/02/23 02:51:51;;;;;;;0.00;0.00;;;;;;;5.80;87.54;100326.69;6216663;23;20098;-75
2023/02/23 02:54:30;;;;;;;0.00;0.00;;;;;;;5.83;87.06;100336.25;6218447;23;19988;-74
2023/02/23 02:56:59;;;;;;;0.00;0.00;;;;;;;5.84;87.97;100327.88;6216026;23;20380;-73
2023/02/23 04:18:17;;;;;;;0.03;0.03;;;;;;;5.83;88.41;100371.53;6221533;23;20004;-75
2023/02/23 04:20:46;;;;;;;0.00;0.00;;;;;;;5.70;88.30;100359.84;6215764;23;20107;-75
2023/02/23 04:23:12;;;;;;;0.00;0.00;;;;;;;5.81;88.15;100377.19;6218736;23;20007;-76
2023/02/23 04:25:37;;;;;;;0.00;0.00;;;;;;;5.85;88.19;100374.81;6217940;23;19992;-74
2023/02/23 04:28:03;;;;;;;0.00;0.00;;;;;;;5.86;88.33;100373.78;6218784;23;20072;-75
2023/02/23 04:30:29;;;;;;;0.00;0.00;;;;;;;5.77;88.13;100370.59;6194196;23;20008;-74
2023/02/23 04:32:58;;;;;;;0.00;0.00;;;;;;;5.74;88.59;100365.63;6194958;23;20070;-75
2023/02/23 04:35:26;;;;;;;0.00;0.00;;;;;;;5.83;88.54;100385.09;6218588;23;20007;-75
2023/02/23 04:37:52;;;;;;;0.00;0.00;;;;;;;5.82;88.55;100388.88;6214320;23;20066;-75
2023/02/23 04:40:17;;;;;;;0.00;0.00;;;;;;;5.68;87.91;100372.81;6190611;23;20004;-75
2023/02/23 04:42:43;;;;;;;0.00;0.00;;;;;;;5.80;88.84;100393.69;6192601;23;20019;-74
2023/02/23 04:45:10;;;;;;;0.00;0.00;;;;;;;5.69;88.27;100390.72;6191845;23;20008;-74
2023/02/23 04:47:36;;;;;;;0.00;0.00;;;;;;;5.77;88.00;100403.16;6214150;23;20427;-74
2023/02/23 04:50:04;;;;;;;0.00;0.00;;;;;;;5.73;88.71;100400.06;6215870;23;20012;-73
2023/02/23 04:52:37;;;;;;;0.00;0.00;;;;;;;5.73;88.96;100402.78;6216177;23;20313;-74
2023/02/23 04:55:16;;;;;;;0.00;0.00;;;;;;;5.66;88.54;100396.63;6222851;23;20349;-77
2023/02/23 04:57:56;;;;;;;0.00;0.00;;;;;;;5.40;88.47;100355.34;6217480;23;20004;-74
2023/02/23 05:00:22;;;;;;;0.00;0.00;;;;;;;5.67;89.25;100402.91;6192173;23;20003;-76
2023/02/23 05:02:47;;;;;;;0.00;0.00;;;;;;;5.67;89.53;100403.72;6214272;23;20095;-75
2023/02/23 05:05:33;;;;;;;0.00;0.00;;;;;;;5.65;89.85;100405.84;6216679;23;20012;-75
2023/02/23 05:08:05;;;;;;;0.00;0.00;;;;;;;5.49;90.03;100379.38;6213712;23;20087;-74
2023/02/23 05:10:33;;;;;;;0.00;0.00;;;;;;;5.58;89.99;100410.56;6216697;23;20063;-76
2023/02/23 05:13:00;;;;;;;0.10;0.10;;;;;;;5.60;90.12;100413.84;6216129;23;20036;-76
2023/02/23 05:15:26;;;;;;;0.10;0.10;;;;;;;5.53;90.63;100415.84;6217912;23;20009;-77
2023/02/23 05:17:51;;;;;;;0.00;0.00;;;;;;;5.65;90.35;100427.56;6215122;23;20107;-77
2023/02/23 05:20:24;;;;;;;0.00;0.00;;;;;;;5.48;90.45;100416.53;6189457;23;20000;-76
2023/02/23 05:22:50;;;;;;;0.00;0.00;;;;;;;5.51;90.29;100426.94;6211782;23;20009;-78
2023/02/23 05:25:15;;;;;;;0.00;0.00;;;;;;;5.46;90.64;100424.09;6191138;23;20039;-78
2023/02/23 05:27:41;;;;;;;0.08;0.08;;;;;;;5.47;91.37;100414.06;6214977;23;20011;-77
2023/02/23 05:30:13;;;;;;;0.00;0.00;;;;;;;5.38;91.68;100417.09;6190107;23;20335;-77
2023/02/23 05:32:38;;;;;;;0.00;0.00;;;;;;;5.38;92.02;100422.53;6196155;23;20659;-78
2023/02/23 05:35:09;;;;;;;0.00;0.00;;;;;;;5.21;91.99;100405.25;6218102;23;20024;-77
2023/02/23 05:37:38;;;;;;;0.10;0.10;;;;;;;5.22;93.06;100415.06;6220550;23;20008;-77
2023/02/23 05:40:12;;;;;;;0.00;0.00;;;;;;;5.29;92.89;100440.19;6213623;23;19984;-77
2023/02/23 05:42:38;;;;;;;0.00;0.00;;;;;;;5.30;93.17;100441.84;6219178;23;19995;-77
2023/02/23 05:45:06;;;;;;;0.00;0.00;;;;;;;5.26;93.28;100446.06;6189442;23;20009;-77
2023/02/23 05:47:34;;;;;;;0.00;0.00;;;;;;;5.32;93.24;100450.56;6218268;23;20008;-76
2023/02/23 05:50:00;;;;;;;0.00;0.00;;;;;;;5.28;92.86;100449.38;6218200;23;20016;-78
2023/02/23 05:52:29;;;;;;;0.00;0.00;;;;;;;5.27;93.82;100442.31;6215387;23;20046;-77
2023/02/23 05:54:54;;;;;;;0.00;0.00;;;;;;;5.28;94.22;100448.56;6216987;23;20009;-78
2023/02/23 05:57:27;;;;;;;0.00;0.00;;;;;;;5.28;94.46;100449.38;6188221;23;20069;-76
2023/02/23 05:59:52;;;;;;;0.00;0.00;;;;;;;5.26;93.59;100440.66;6190681;23;20378;-76
2023/02/23 06:02:28;;;;;;;0.00;0.00;;;;;;;5.21;93.99;100430.50;6189364;23;20029;-76
2023/02/23 06:04:54;;;;;;;0.00;0.00;;;;;;;5.26;93.90;100440.66;6191376;23;20023;-75
2023/02/23 06:07:20;;;;;;;0.00;0.00;;;;;;;5.32;93.85;100447.88;6191304;23;20009;-76
2023/02/23 06:09:45;;;;;;;0.00;0.00;;;;;;;5.32;94.17;100452.47;6220849;23;20091;-75
2023/02/23 06:12:11;;;;;;;0.00;0.00;;;;;;;5.24;94.75;100449.03;6193582;23;20039;-77
2023/02/23 06:14:39;;;;;;;0.00;0.00;;;;;;;5.18;95.00;100428.25;6219045;23;20008;-76
2023/02/23 06:17:11;;;;;;;0.00;0.00;;;;;;;5.31;94.86;100453.50;6197441;23;20007;-78
2023/02/23 06:19:39;;;;;;;0.00;0.00;;;;;;;5.24;94.45;100440.03;6192741;23;20000;-75
2023/02/23 06:22:10;;;;;;;0.00;0.00;;;;;;;5.28;95.53;100448.56;6223581;23;20011;-76
2023/02/23 06:24:36;;;;;;;0.00;0.00;;;;;;;5.19;95.21;100431.78;6218525;23;20065;-75
2023/02/23 06:27:01;;;;;;;0.00;0.00;;;;;;;5.28;95.39;100449.38;6196885;23;20438;-75
2023/02/23 06:29:27;;;;;;;0.00;0.00;;;;;;;5.22;95.75;100444.88;6193809;23;20055;-75
2023/02/23 06:31:52;;;;;;;0.00;0.00;;;;;;;5.21;95.27;100443.22;6197564;23;20008;-76
2023/02/23 06:34:25;;;;;;;0.00;0.00;;;;;;;5.24;95.28;100453.59;6219388;23;20008;-76
2023/02/23 06:36:51;;;;;;;0.00;0.00;;;;;;;5.09;95.78;100429.63;6199101;23;20084;-77
2023/02/23 06:39:16;;;;;;;0.00;0.00;;;;;;;5.18;95.55;100458.09;6222252;23;20004;-76
2023/02/23 06:41:45;;;;;;;0.00;0.00;;;;;;;5.08;95.70;100433.38;6195148;23;20411;-76
2023/02/23 06:44:10;;;;;;;0.00;0.00;;;;;;;5.13;95.60;100440.84;6193923;23;20042;-75
2023/02/23 06:46:36;;;;;;;0.00;0.00;;;;;;;5.18;95.89;100458.09;6197682;23;20004;-76
2023/02/23 06:49:02;;;;;;;0.00;0.00;;;;;;;5.29;95.76;100471.91;6219766;23;20004;-76
2023/02/23 06:51:28;;;;;;;0.00;0.00;;;;;;;5.30;95.97;100470.84;6250465;22;20353;-81
2023/02/23 06:56:42;;;;;;;0.00;0.00;;;;;;;5.18;96.10;100459.94;6233997;22;20008;-77
2023/02/23 06:59:10;;;;;;;0.00;0.00;;;;;;;5.13;96.41;100457.13;6193950;23;20008;-75
2023/02/23 07:01:38;;;;;;;0.00;0.00;;;;;;;5.17;96.22;100477.25;6197724;23;20016;-75
2023/02/23 07:04:04;;;;;;;0.00;0.00;;;;;;;5.14;96.70;100475.84;6220075;23;20024;-75
2023/02/23 07:06:30;;;;;;;0.00;0.00;;;;;;;5.15;96.73;100482.09;6221167;23;20012;-75
2023/02/23 07:08:58;;;;;;;0.00;0.00;;;;;;;4.95;97.50;100458.78;6189466;23;20001;-77
2023/02/23 07:11:24;;;;;;;0.00;0.00;;;;;;;5.13;97.40;100486.94;6220744;23;20083;-75
2023/02/23 07:13:49;;;;;;;0.00;0.00;;;;;;;5.21;97.70;100486.59;6225181;23;20343;-76
2023/02/23 07:16:15;;;;;;;0.10;0.10;;;;;;;5.32;97.59;100499.38;6194158;23;20017;-78
2023/02/23 07:18:41;;;;;;;0.00;0.00;;;;;;;5.32;97.86;100491.25;6221604;22;20023;-76
2023/02/23 07:21:06;;;;;;;0.00;0.00;;;;;;;5.49;97.40;100509.59;6214298;23;20427;-75
2023/02/23 07:23:34;;;;;;;0.00;0.00;;;;;;;5.37;97.19;100479.72;6194550;23;20035;-76
2023/02/23 07:26:00;;;;;;;0.00;0.00;;;;;;;5.59;97.48;100507.97;6215736;23;20004;-76
2023/02/23 07:28:28;;;;;;;0.10;0.10;;;;;;;5.63;97.01;100521.91;6193822;23;20009;-74
2023/02/23 07:30:57;;;;;;;0.00;0.00;;;;;;;5.62;96.64;100509.38;6189543;23;20008;-74
2023/02/23 07:33:27;;;;;;;0.00;0.00;;;;;;;5.68;97.00;100513.91;6192897;23;20004;-77
2023/02/23 07:35:52;;;;;;;0.00;0.00;;;;;;;5.75;97.18;100516.50;6167258;23;20003;-75
2023/02/23 07:38:20;;;;;;;0.00;0.00;;;;;;;5.83;96.32;100510.75;6165410;23;20008;-76
2023/02/23 07:40:48;;;;;;;0.00;0.00;;;;;;;6.03;96.74;100521.34;6166477;23;20012;-74
2023/02/23 07:43:13;;;;;;;0.00;0.00;;;;;;;6.20;95.46;100523.38;6215389;23;20001;-74
2023/02/23 07:45:39;;;;;;;0.00;0.00;;;;;;;6.20;94.80;100520.66;6215382;23;20009;-74
2023/02/23 07:48:13;;;;;;;0.00;0.00;;;;;;;6.17;95.13;100499.41;6191366;23;20020;-75
2023/02/23 07:50:40;;;;;;;0.00;0.00;;;;;;;6.18;94.37;100525.50;6214506;23;20067;-74
2023/02/23 07:53:05;;;;;;;0.00;0.00;;;;;;;6.09;95.08;100520.41;6215629;23;20106;-74
2023/02/23 07:55:31;;;;;;;0.00;0.00;;;;;;;5.99;95.29;100525.56;6213545;23;20004;-75
2023/02/23 07:57:59;;;;;;;0.00;0.00;;;;;;;5.96;95.67;100542.31;6190394;23;20016;-74
2023/02/23 08:00:26;;;;;;;0.00;0.00;;;;;;;5.90;96.27;100532.38;6212924;23;20032;-74
2023/02/23 08:02:52;;;;;;;0.00;0.00;;;;;;;5.84;96.52;100523.28;6193018;23;20011;-74
2023/02/23 08:05:18;;;;;;;0.00;0.00;;;;;;;5.89;97.19;100536.97;6219870;23;20004;-74
2023/02/23 08:07:44;;;;;;;0.00;0.00;;;;;;;5.95;96.75;100552.31;6221891;23;20048;-74
2023/02/23 08:10:10;;;;;;;0.10;0.10;;;;;;;5.99;97.08;100551.91;6224348;23;20032;-73
2023/02/23 08:12:47;;;;;;;0.00;0.00;;;;;;;5.94;97.13;100550.69;6220947;23;20004;-73
2023/02/23 08:15:12;;;;;;;0.00;0.00;;;;;;;5.89;97.84;100541.56;6198013;23;20004;-75
2023/02/23 08:17:40;;;;;;;0.00;0.00;;;;;;;6.02;98.30;100552.25;6218574;23;20547;-75
2023/02/23 08:20:06;;;;;;;0.00;0.00;;;;;;;6.09;97.44;100546.75;6224760;23;20064;-74
2023/02/23 08:22:36;;;;;;;0.00;0.00;;;;;;;6.15;97.72;100550.38;6220108;23;20004;-74
2023/02/23 08:25:04;;;;;;;0.00;0.00;;;;;;;6.17;97.80;100542.84;6222630;23;20752;-73
2023/02/23 08:27:33;;;;;;;0.00;0.00;;;;;;;6.38;96.98;100555.88;6246315;23;20019;-74
2023/02/23 08:29:59;;;;;;;0.00;0.00;;;;;;;6.51;96.16;100570.28;6220992;23;20035;-75
2023/02/23 08:32:25;;;;;;;0.00;0.00;;;;;;;6.51;95.00;100570.28;6221585;23;20065;-74
2023/02/23 08:34:50;;;;;;;0.10;0.10;;;;;;;6.57;94.51;100548.44;6219387;23;20008;-74
2023/02/23 08:37:16;;;;;;;0.00;0.00;;;;;;;6.82;93.80;100561.75;6196355;23;20091;-73
2023/02/23 08:39:42;;;;;;;0.00;0.00;;;;;;;7.04;93.34;100563.88;6193967;23;20083;-74
2023/02/23 08:42:08;;;;;;;0.00;0.00;;;;;;;7.37;91.52;100578.69;6244806;23;20062;-75
2023/02/23 08:44:33;;;;;;;0.00;0.00;;;;;;;7.27;89.73;100556.72;6221804;23;20004;-75
2023/02/23 08:47:00;;;;;;;0.00;0.00;;;;;;;7.23;89.33;100578.13;6193127;23;20038;-75
2023/02/23 08:49:25;;;;;;;0.00;0.00;;;;;;;6.99;89.99;100577.34;6172660;23;20343;-75
2023/02/23 08:51:53;;;;;;;0.00;0.00;;;;;;;6.76;90.61;100579.03;6193162;23;20042;-73
2023/02/23 08:54:19;;;;;;;0.00;0.00;;;;;;;6.55;91.42;100560.59;6221882;23;20014;-77
2023/02/23 08:56:45;;;;;;;0.00;0.00;;;;;;;6.66;92.45;100562.50;6251654;23;20027;-79
2023/02/23 08:59:12;;;;;;;0.00;0.00;;;;;;;6.75;91.55;100581.97;6197288;23;20008;-77
2023/02/23 09:01:37;;;;;;;0.00;0.00;;;;;;;6.78;91.36;100566.00;6224151;23;20008;-78
2023/02/23 09:04:05;;;;;;;0.00;0.00;;;;;;;6.82;90.47;100569.91;6221240;23;20004;-76
2023/02/23 09:06:34;;;;;;;0.00;0.00;;;;;;;6.90;91.01;100571.44;6251663;23;20008;-78
2023/02/23 09:09:00;;;;;;;0.00;0.00;;;;;;;7.16;90.09;100572.00;6221150;23;20152;-76
2023/02/23 09:11:25;;;;;;;0.00;0.00;;;;;;;7.38;89.53;100580.34;6199636;23;20484;-78
2023/02/23 09:13:51;;;;;;;0.00;0.00;;;;;;;7.45;88.29;100581.03;6195835;23;19996;-78
2023/02/23 09:16:19;;;;;;;0.00;0.00;;;;;;;7.60;87.92;100587.84;6222251;23;20067;-78
2023/02/23 09:18:44;;;;;;;0.10;0.10;;;;;;;7.82;87.10;100567.03;6198301;23;20012;-78
2023/02/23 09:21:21;;;;;;;0.00;0.00;;;;;;;7.97;85.25;100582.00;6220587;23;20461;-80
2023/02/23 09:23:48;;;;;;;0.00;0.00;;;;;;;8.05;84.35;100568.00;6223925;23;20069;-79
2023/02/23 09:26:17;;;;;;;0.10;0.10;;;;;;;8.36;83.51;100584.84;6219626;22;20022;-74
2023/02/23 09:28:42;;;;;;;0.00;0.00;;;;;;;8.84;81.43;100583.44;6248397;23;19988;-73
2023/02/23 09:31:13;;;;;;;0.00;0.00;;;;;;;9.80;77.26;100597.75;6217350;23;20011;-74
2023/02/23 09:33:41;;;;;;;0.00;0.00;;;;;;;10.05;76.86;100582.72;6220623;23;20008;-78
2023/02/23 09:36:30;;;;;;;0.00;0.00;;;;;;;11.24;71.50;100585.22;6218378;23;20054;-76
2023/02/23 09:38:59;;;;;;;0.00;0.00;;;;;;;11.26;67.64;100591.25;6221102;23;19996;-77
2023/02/23 09:41:35;;;;;;;0.00;0.00;;;;;;;10.40;68.64;100616.94;6220010;23;20028;-77
2023/02/23 09:44:13;;;;;;;0.00;0.00;;;;;;;9.67;72.13;100600.91;6222086;23;20044;-76
2023/02/23 09:46:53;;;;;;;0.00;0.00;;;;;;;9.15;73.70;100602.97;6222068;23;20095;-77
2023/02/23 09:49:24;;;;;;;0.00;0.00;;;;;;;8.68;75.97;100597.94;6224919;23;20058;-78
2023/02/23 09:51:56;;;;;;;0.00;0.00;;;;;;;8.68;77.50;100593.28;6221675;23;20378;-76
2023/02/23 09:54:29;;;;;;;0.00;0.00;;;;;;;8.73;77.28;100607.03;6218249;23;20004;-76
2023/02/23 09:57:02;;;;;;;0.00;0.00;;;;;;;8.78;76.75;100617.16;6217135;23;20069;-77
2023/02/23 09:59:30;;;;;;;0.00;0.00;;;;;;;8.79;76.43;100610.66;6245698;22;20334;-75
2023/02/23 10:02:04;;;;;;;0.00;0.00;;;;;;;9.02;76.86;100615.09;6245622;23;20026;-75
2023/02/23 10:04:47;;;;;;;0.00;0.00;;;;;;;9.13;75.01;100624.22;6246732;23;20008;-75
2023/02/23 10:07:40;;;;;;;0.00;0.00;;;;;;;9.22;74.53;100619.97;6215065;23;20027;-79
2023/02/23 10:10:29;;;;;;;0.00;0.00;;;;;;;9.39;73.59;100619.13;6219477;23;20012;-76
2023/02/23 10:13:14;;;;;;;0.00;0.00;;;;;;;9.81;71.80;100640.34;6218359;23;20019;-74
2023/02/23 10:15:49;;;;;;;0.00;0.00;;;;;;;9.54;71.36;100627.50;6214546;23;20367;-76
2023/02/23 10:19:06;;;;;;;0.00;0.00;;;;;;;9.43;72.39;100642.06;6247698;23;20004;-76
2023/02/23 10:24:24;;;;;;;0.00;0.00;;;;;;;8.91;73.05;100618.72;6212703;23;20020;-78
2023/02/23 10:27:00;;;;;;;0.00;0.00;;;;;;;9.05;73.31;100619.19;6192521;23;20035;-79
2023/02/23 10:29:36;;;;;;;0.00;0.00;;;;;;;9.29;73.17;100635.34;6187691;23;20080;-79
2023/02/23 10:32:06;;;;;;;0.00;0.00;;;;;;;9.54;72.37;100638.41;6210328;23;20086;-78
2023/02/23 10:34:32;;;;;;;0.00;0.00;;;;;;;9.41;71.33;100641.53;6193075;23;20001;-78
2023/02/23 10:37:03;;;;;;;0.00;0.00;;;;;;;9.11;71.40;100648.19;6169253;23;20028;-79
2023/02/23 10:39:30;;;;;;;0.00;0.00;;;;;;;8.80;72.44;100628.66;6193687;23;20070;-77
2023/02/23 10:41:59;;;;;;;0.00;0.00;;;;;;;8.91;73.75;100648.72;6196104;23;20036;-79
2023/02/23 10:44:27;;;;;;;0.00;0.00;;;;;;;8.99;73.65;100647.47;6204388;23;20001;-78
2023/02/23 10:47:01;;;;;;;0.00;0.00;;;;;;;9.07;72.84;100641.59;6201493;23;20008;-78
2023/02/23 10:49:49;;;;;;;;;;;;;;;9.01;72.45;100662.53;6202451;23;20024;-77
2023/02/23 10:52:19;;;;;;;0.00;0.00;;;;;;;8.83;72.61;100644.50;6195371;23;19927;-79
2023/02/23 10:54:49;;;;;;;0.10;0.10;;;;;;;9.08;72.98;100667.78;6197868;23;20067;-78
2023/02/23 10:57:29;;;;;;;0.00;0.00;;;;;;;9.22;72.52;100663.63;6194957;23;20009;-78
2023/02/23 11:00:19;;;;;;;0.00;0.00;;;;;;;9.45;71.90;100669.97;6196227;23;20008;-77
2023/02/23 11:02:46;;;;;;;0.00;0.00;;;;;;;9.81;71.47;100664.94;6193557;23;20075;-79
2023/02/23 11:05:44;;;;;;;0.00;0.00;;;;;;;10.23;69.67;100674.44;6167484;23;20027;-77
2023/02/23 11:08:21;;;;;;;0.10;0.10;;;;;;;10.46;67.29;100670.59;6194141;23;20068;-78
2023/02/23 11:11:27;;;;;;;0.00;0.00;;;;;;;10.48;68.06;100679.34;6221241;23;20029;-78
2023/02/23 11:13:55;;;;;;;0.10;0.10;;;;;;;9.97;67.21;100660.47;6194492;23;20467;-79
2023/02/23 11:16:31;;;;;;;0.00;0.00;;;;;;;9.58;67.35;100677.78;6171575;23;20012;-78
2023/02/23 11:19:04;;;;;;;0.00;0.00;;;;;;;9.30;68.38;100672.47;6195856;23;20059;-80
2023/02/23 11:21:37;;;;;;;0.10;0.10;;;;;;;9.38;69.40;100678.31;6195434;23;20012;-80
2023/02/23 11:24:33;;;;;;;0.00;0.00;;;;;;;9.69;69.78;100694.28;6190463;23;20024;-79
2023/02/23 11:27:06;;;;;;;0.00;0.00;;;;;;;9.67;69.44;100685.53;6192850;23;20032;-77
2023/02/23 11:29:46;;;;;;;0.00;0.00;;;;;;;9.57;69.96;100672.56;6186782;23;20036;-79
2023/02/23 11:32:17;;;;;;;0.00;0.00;;;;;;;9.76;69.35;100684.00;6191836;23;20011;-76
2023/02/23 11:34:51;;;;;;;0.00;0.00;;;;;;;9.96;68.80;100686.16;6190003;23;20077;-78
2023/02/23 11:37:22;;;;;;;0.00;0.00;;;;;;;10.04;68.41;100702.09;6218998;23;20032;-79
2023/02/23 11:39:58;;;;;;;0.00;0.00;;;;;;;10.04;68.71;100701.28;6191703;23;20391;-79
2023/02/23 11:42:26;;;;;;;0.00;0.00;;;;;;;10.26;68.66;100695.78;6194110;23;20432;-78
2023/02/23 11:45:07;;;;;;;0.00;0.00;;;;;;;10.37;68.00;100681.16;6191682;23;20079;-79
2023/02/23 11:47:38;;;;;;;0.00;0.00;;;;;;;10.67;67.80;100687.16;6190342;23;20009;-80
2023/02/23 11:50:05;;;;;;;0.00;0.00;;;;;;;11.08;65.99;100687.50;6189036;23;20005;-79
2023/02/23 11:52:31;;;;;;;0.00;0.00;;;;;;;11.12;64.93;100674.94;6190493;23;20012;-80
2023/02/23 11:54:59;;;;;;;0.00;0.00;;;;;;;11.14;63.75;100694.63;6192213;23;19997;-79
2023/02/23 11:57:32;;;;;;;0.00;0.00;;;;;;;10.69;64.91;100698.66;6190473;23;20035;-79
2023/02/23 12:00:00;;;;;;;0.00;0.00;;;;;;;10.62;66.10;100691.50;6221056;23;20617;-79
2023/02/23 12:02:32;;;;;;;0.00;0.00;;;;;;;10.58;66.34;100690.38;6190937;23;20008;-79
2023/02/23 12:05:06;;;;;;;0.00;0.00;;;;;;;10.51;66.36;100694.41;6195805;23;20015;-79
2023/02/23 12:07:40;;;;;;;0.00;0.00;;;;;;;10.48;66.15;100690.28;6190498;23;20058;-79
2023/02/23 12:10:21;;;;;;;0.00;0.00;;;;;;;10.34;66.16;100699.97;6193629;23;20059;-78
2023/02/23 12:12:59;;;;;;;0.00;0.00;;;;;;;10.29;66.17;100687.06;6191145;23;20004;-80
2023/02/23 12:16:07;;;;;;;0.00;0.00;;;;;;;10.41;65.95;100690.50;6193985;23;20004;-79
2023/02/23 12:18:55;;;;;;;0.00;0.00;;;;;;;10.40;65.57;100694.31;6192290;23;20330;-76
2023/02/23 12:21:46;;;;;;;0.00;0.00;;;;;;;10.56;65.76;100698.03;6185933;23;20009;-74
2023/02/23 12:24:33;;;;;;;0.00;0.00;;;;;;;10.86;64.23;100701.28;6186665;23;20515;-73
2023/02/23 12:27:28;;;;;;;0.00;0.00;;;;;;;11.03;63.87;100695.69;6188727;23;20009;-75
2023/02/23 12:30:05;;;;;;;;;;;;;;;11.11;64.04;100686.97;6204049;23;20576;-74
2023/02/23 12:32:37;;;;;;;0.00;0.00;;;;;;;10.99;63.47;100685.25;6190117;23;19920;-73
2023/02/23 12:35:07;;;;;;;0.00;0.00;;;;;;;10.70;63.25;100694.84;6190757;23;20030;-75
2023/02/23 12:37:44;;;;;;;0.00;0.00;;;;;;;10.89;64.58;100698.84;6213471;23;19992;-75
2023/02/23 12:40:34;;;;;;;0.00;0.00;;;;;;;10.94;63.19;100687.13;6190246;23;19996;-76
2023/02/23 12:43:28;;;;;;;0.00;0.00;;;;;;;10.65;63.59;100696.44;6215273;23;20327;-77
2023/02/23 12:46:25;;;;;;;0.00;0.00;;;;;;;10.16;64.08;100699.22;6194321;23;20016;-80
2023/02/23 12:49:12;;;;;;;0.00;0.00;;;;;;;9.75;65.29;100685.06;6190044;23;20009;-77
2023/02/23 12:51:42;;;;;;;0.00;0.00;;;;;;;9.42;66.62;100687.66;6191990;23;20052;-77
2023/02/23 12:54:13;;;;;;;0.00;0.00;;;;;;;9.33;67.41;100691.06;6188644;23;20004;-76
2023/02/23 12:57:06;;;;;;;0.00;0.00;;;;;;;9.35;67.12;100699.84;6193808;23;19997;-77
2023/02/23 13:00:03;;;;;;;0.00;0.00;;;;;;;9.70;67.25;100695.94;6193884;23;20019;-78
2023/02/23 13:02:46;;;;;;;0.00;0.00;;;;;;;10.04;66.40;100696.63;6191040;23;20008;-78
2023/02/23 13:05:21;;;;;;;0.00;0.00;;;;;;;10.09;65.67;100698.59;6193079;23;20015;-77
2023/02/23 13:08:19;;;;;;;0.00;0.00;;;;;;;9.92;64.78;100702.22;6190520;23;20092;-77
2023/02/23 13:10:58;;;;;;;0.00;0.00;;;;;;;9.44;65.60;100690.97;6186143;23;20383;-77
2023/02/23 13:13:29;;;;;;;0.00;0.00;;;;;;;9.33;66.87;100707.44;6191815;23;19996;-79
2023/02/23 13:16:04;;;;;;;0.00;0.00;;;;;;;9.15;67.06;100690.28;6188935;23;20008;-79
2023/02/23 13:19:00;;;;;;;0.00;0.00;;;;;;;9.06;68.15;100686.31;6192360;23;20000;-78
2023/02/23 13:21:27;;;;;;;0.00;0.00;;;;;;;8.91;68.14;100687.72;6191088;23;20001;-79
2023/02/23 13:24:11;;;;;;;0.08;0.08;;;;;;;8.91;68.03;100690.47;6193396;23;20423;-77
2023/02/23 13:27:02;;;;;;;0.00;0.00;;;;;;;8.97;68.61;100687.81;6184660;23;20004;-75
2023/02/23 13:29:39;;;;;;;0.00;0.00;;;;;;;9.04;68.55;100688.47;6213834;23;20075;-73
2023/02/23 13:32:22;;;;;;;0.00;0.00;;;;;;;9.00;68.44;100684.59;6188070;23;20383;-75
2023/02/23 13:34:59;;;;;;;0.00;0.00;;;;;;;9.00;68.38;100692.78;6186844;23;20096;-76
2023/02/23 13:37:34;;;;;;;0.00;0.00;;;;;;;8.94;68.22;100688.31;6189688;23;20067;-77
2023/02/23 13:40:27;;;;;;;0.00;0.00;;;;;;;9.09;68.69;100704.91;6212040;23;20046;-74
2023/02/23 13:43:41;;;;;;;0.00;0.00;;;;;;;8.93;67.95;100681.22;6217942;23;20293;-76
2023/02/23 13:46:45;;;;;;;0.00;0.00;;;;;;;9.07;68.02;100701.63;6083611;23;20010;-75
2023/02/23 13:49:56;;;;;;;0.00;0.00;;;;;;;9.15;68.16;100705.81;6217218;23;19996;-75
2023/02/23 13:52:54;;;;;;;;;;;;;;;;;;;;;